Ascutney, VT (05030)

4:28 PM EDT on April 18, 2015 (GMT -0400)
Ascutney Farm Stand | | Change Station
CLOSE
Current Station
Personal Weather Station
Location: Windsor, VT
Elevation: 427 ft
Nearby Weather Stations

Elev 427 ft 43.41 °N, 72.41 °W | Updated 6 minutes ago

Overcast
Overcast
59.0 °F
Feels Like 59.0 °F
N
4.7
Wind Variable Wind from NW

Today
High -- | Low -- °F
--% Chance of Precip.
Yesterday
High -- | Low -- °F
Precip. -- in
6:02 AM 7:36 PM
New Moon, 0% visible
Pressure 29.83 in
Visibility 6.0 miles
Clouds Overcast 7000 ft
Dew Point 48 °F
Humidity 67%
Rainfall in
Snow Depth Not available.
UV 2 out of 12
Pollen 8.90 out of 12
Air Quality Not available.
Flu Activity Regional
METAR KVSF 181954Z AUTO 33011G18KT 6SM RA OVC070 15/07 A2982 RMK AO2 RAB16 SLP102 P0002 T01500067 TSNO

More Conditions Fewer Conditions

Pressure 29.83 in
Visibility 6.0 miles
Clouds Overcast 7000 ft
Dew Point 48 °F
Humidity 67%
Rainfall in
Snow Depth Not available.
UV 2 out of 12
Pollen 8.90 out of 12
Air Quality Not available.
Flu Activity Regional
METAR KVSF 181954Z AUTO 33011G18KT 6SM RA OVC070 15/07 A2982 RMK AO2 RAB16 SLP102 P0002 T01500067 TSNO

More Conditions Fewer Conditions

10-Day Weather Forecast

Almanac

Astronomy

Apr. 18, 2015 Rise Set
Actual Time
Civil Twilight
Nautical Twilight
Astronomical Twilight
Moon
Length of Visible Light
Length of Day
Tomorrow will be .
, % of the Moon is Illuminated

Today's Extremes

State Highs State Lows

Community

WunderPhotos

Upload Photos

1,814,515 photos uploaded!

WunderBlogs® & News

Nearby

Air Quality

  Air Quality AQ Index Pollutant
Not available.

Snow Depth

Station Depth Elevation

Earthquake Activity

City Distance Mag. Time & Date
Minimum magnitude displayed is 2.5.

Coastal Water Temperatures

Place Temperature

Stations

Nearby Weather Stations

Station Location Temp. Windchill Dew Point Humidity Wind Precip. Elev Updated Type